Terminal Aerodrome Forecast
Issued by NWS Cleveland, OH

Home | Current Version | Previous Version | Text Only | Print | Product List | Glossary Off
Versions: 1 2 3 4 5 6 7 8 9 10 11 12

000
FTUS41 KCLE 030520
TAFTOL
TAF
KTOL 030520Z 0306/0406 05004KT P6SM BKN250
     FM031500 07007KT P6SM BKN250
     FM040100 09003KT P6SM SCT250=

USA.gov is the U.S. government's official web portal to all federal, state and local government web resources and services.